createdAt,value
2023-11-24T00:02:01.926Z,0.77
2023-11-24T00:04:47.332Z,0.97
2023-11-24T00:07:33.045Z,0.95
2023-11-24T00:10:18.913Z,1.35
2023-11-24T00:13:04.082Z,1.13
2023-11-24T00:15:49.673Z,1.55
2023-11-24T00:18:35.271Z,1.73
2023-11-24T00:21:20.227Z,1.85
2023-11-24T00:24:05.845Z,2.15
2023-11-24T00:26:52.658Z,1.60
2023-11-24T00:29:37.465Z,1.20
2023-11-24T00:32:23.720Z,1.03
2023-11-24T00:35:09.529Z,2.50
2023-11-24T00:37:54.783Z,1.42
2023-11-24T00:40:42.365Z,1.63
2023-11-24T00:43:27.879Z,1.13
2023-11-24T00:46:13.889Z,1.50
2023-11-24T00:48:59.178Z,1.20
2023-11-24T00:51:44.956Z,1.30
2023-11-24T00:54:29.920Z,0.75
2023-11-24T00:57:15.011Z,0.90
2023-11-24T01:00:00.373Z,1.23
2023-11-24T01:02:45.943Z,1.77
2023-11-24T01:05:31.038Z,1.60
2023-11-24T01:08:18.887Z,1.08
2023-11-24T01:11:03.775Z,1.65
2023-11-24T01:13:48.786Z,2.03
2023-11-24T01:16:33.532Z,1.52
2023-11-24T01:19:18.543Z,1.58
2023-11-24T01:22:04.381Z,1.50
2023-11-24T01:24:49.273Z,1.25
2023-11-24T01:27:34.332Z,1.00
2023-11-24T01:30:19.262Z,1.50
2023-11-24T01:33:04.317Z,1.85
2023-11-24T01:35:50.320Z,1.65
2023-11-24T01:38:35.476Z,1.13
2023-11-24T01:41:20.538Z,1.27
2023-11-24T01:44:06.085Z,1.30
2023-11-24T01:46:51.313Z,1.27
2023-11-24T01:49:36.432Z,1.48
2023-11-24T01:52:21.747Z,1.05
2023-11-24T01:55:07.423Z,0.80
2023-11-24T01:57:53.875Z,1.40
2023-11-24T02:00:39.752Z,1.00
2023-11-24T02:03:24.928Z,1.30
2023-11-24T02:06:12.495Z,1.48
2023-11-24T02:08:58.036Z,1.60
2023-11-24T02:11:43.288Z,1.20
2023-11-24T02:14:29.341Z,1.33
2023-11-24T02:17:16.624Z,0.98
2023-11-24T02:20:07.555Z,1.52
2023-11-24T02:22:52.605Z,1.10
2023-11-24T02:25:38.082Z,1.48
2023-11-24T02:28:23.421Z,1.10
2023-11-24T02:31:09.049Z,1.17
2023-11-24T02:33:54.198Z,1.25
2023-11-24T02:36:39.196Z,1.63
2023-11-24T02:39:24.454Z,1.30
2023-11-24T02:42:09.468Z,1.33
2023-11-24T02:44:54.778Z,1.63
2023-11-24T02:47:40.132Z,1.17
2023-11-24T02:50:25.087Z,1.40
2023-11-24T02:53:10.704Z,1.17
2023-11-24T02:55:56.200Z,0.70
2023-11-24T02:58:41.421Z,1.00
2023-11-24T03:01:26.540Z,0.85
2023-11-24T03:04:11.783Z,1.40
2023-11-24T03:06:57.564Z,1.20
2023-11-24T03:09:42.781Z,1.00
2023-11-24T03:12:28.168Z,1.25
2023-11-24T03:15:13.311Z,1.10
2023-11-24T03:17:58.369Z,1.40
2023-11-24T03:20:43.082Z,1.23
2023-11-24T03:23:28.193Z,0.82
2023-11-24T03:26:13.193Z,0.82
2023-11-24T03:28:58.511Z,0.80
2023-11-24T03:31:43.917Z,1.30
2023-11-24T03:34:29.263Z,1.52
2023-11-24T03:37:14.603Z,1.05
2023-11-24T03:39:59.675Z,0.60
2023-11-24T03:42:44.893Z,1.00
2023-11-24T03:45:30.905Z,1.07
2023-11-24T03:48:22.112Z,1.20
2023-11-24T03:51:07.841Z,1.02
2023-11-24T03:53:53.528Z,1.52
2023-11-24T03:56:38.899Z,0.73
2023-11-24T03:59:24.220Z,1.03
2023-11-24T04:02:09.483Z,0.80
2023-11-24T04:04:54.567Z,0.73
2023-11-24T04:07:40.185Z,1.13
2023-11-24T04:10:26.019Z,0.75
2023-11-24T04:13:11.286Z,0.70
2023-11-24T04:15:56.535Z,0.93
2023-11-24T04:18:42.158Z,0.88
2023-11-24T04:21:27.192Z,0.57
2023-11-24T04:24:12.148Z,1.15
2023-11-24T04:26:57.214Z,0.80
2023-11-24T04:29:42.083Z,0.82
2023-11-24T04:32:27.151Z,1.02
2023-11-24T04:35:12.522Z,1.13
2023-11-24T04:37:57.906Z,0.90
2023-11-24T04:40:43.405Z,0.73
2023-11-24T04:43:28.677Z,0.60
2023-11-24T04:46:14.297Z,0.90
2023-11-24T04:49:04.984Z,0.90
2023-11-24T04:51:50.352Z,1.00
2023-11-24T04:54:35.693Z,1.20
2023-11-24T04:57:20.775Z,1.20
2023-11-24T05:00:09.229Z,1.10
2023-11-24T05:02:54.268Z,0.68
2023-11-24T05:05:40.105Z,0.77
2023-11-24T05:08:25.128Z,0.70
2023-11-24T05:11:10.260Z,1.10
2023-11-24T05:13:55.904Z,0.77
2023-11-24T05:16:41.192Z,0.55
2023-11-24T05:19:26.058Z,0.70
2023-11-24T05:22:10.985Z,0.87
2023-11-24T05:24:56.204Z,0.95
2023-11-24T05:27:41.324Z,0.85
2023-11-24T05:30:26.225Z,1.23
2023-11-24T05:33:11.355Z,1.85
2023-11-24T05:35:58.529Z,0.67
2023-11-24T05:38:43.450Z,1.05
2023-11-24T05:41:29.480Z,0.63
2023-11-24T05:44:16.825Z,0.82
2023-11-24T05:47:05.647Z,1.02
2023-11-24T05:49:53.168Z,1.03
2023-11-24T05:52:38.301Z,0.50
2023-11-24T05:55:23.463Z,0.80
2023-11-24T05:58:09.516Z,0.52
2023-11-24T06:00:54.575Z,0.80
2023-11-24T06:03:39.866Z,0.90
2023-11-24T06:06:24.795Z,1.02
2023-11-24T06:09:10.281Z,0.60
2023-11-24T06:11:55.575Z,0.90
2023-11-24T06:14:40.630Z,1.27
2023-11-24T06:17:25.664Z,1.07
2023-11-24T06:20:11.901Z,0.50
2023-11-24T06:22:56.902Z,1.05
2023-11-24T06:25:44.247Z,0.82
2023-11-24T06:28:29.450Z,1.02
2023-11-24T06:31:17.654Z,1.00
2023-11-24T06:34:03.300Z,0.88
2023-11-24T06:36:48.805Z,0.57
2023-11-24T06:39:34.240Z,0.77
2023-11-24T06:42:19.469Z,0.88
2023-11-24T06:45:05.086Z,0.63
2023-11-24T06:47:50.182Z,0.65
2023-11-24T06:50:34.999Z,0.80
2023-11-24T06:53:20.236Z,0.82
2023-11-24T06:56:05.571Z,0.60
2023-11-24T06:58:55.244Z,1.00
2023-11-24T07:01:40.614Z,0.70
2023-11-24T07:04:25.663Z,0.55
2023-11-24T07:07:11.033Z,1.88
2023-11-24T07:09:55.980Z,2.30
2023-11-24T07:12:44.975Z,0.63
2023-11-24T07:15:30.778Z,0.70
2023-11-24T07:18:16.028Z,1.00
2023-11-24T07:21:00.927Z,0.80
2023-11-24T07:23:46.220Z,0.80
2023-11-24T07:26:31.303Z,0.90
2023-11-24T07:29:16.860Z,0.82
2023-11-24T07:32:03.508Z,1.20
2023-11-24T07:34:48.772Z,0.68
2023-11-24T07:37:33.946Z,0.95
2023-11-24T07:40:19.116Z,1.80
2023-11-24T07:43:04.341Z,0.85
2023-11-24T07:45:51.909Z,1.13
2023-11-24T07:48:38.271Z,0.68
2023-11-24T07:51:23.438Z,0.60
2023-11-24T07:54:08.682Z,0.63
2023-11-24T07:56:53.656Z,0.52
2023-11-24T07:59:38.560Z,1.33
2023-11-24T08:02:23.864Z,0.93
2023-11-24T08:05:09.719Z,0.90
2023-11-24T08:07:55.044Z,1.20
2023-11-24T08:10:41.112Z,1.10
2023-11-24T08:13:26.373Z,1.00
2023-11-24T08:16:12.801Z,0.90
2023-11-24T08:18:57.663Z,0.70
2023-11-24T08:21:42.601Z,0.63
2023-11-24T08:24:27.814Z,0.80
2023-11-24T08:27:12.915Z,0.47
2023-11-24T08:29:58.466Z,0.43
2023-11-24T08:32:45.891Z,0.55
2023-11-24T08:35:32.022Z,0.90
2023-11-24T08:38:16.986Z,1.50
2023-11-24T08:41:01.934Z,1.42
2023-11-24T08:43:47.753Z,1.13
2023-11-24T08:46:32.824Z,1.20
2023-11-24T08:49:18.054Z,0.97
2023-11-24T08:52:04.303Z,0.93
2023-11-24T08:54:50.450Z,1.10
2023-11-24T08:57:35.535Z,0.70
2023-11-24T09:00:20.668Z,0.90
2023-11-24T09:03:06.295Z,0.60
2023-11-24T09:05:54.688Z,0.45
2023-11-24T09:08:39.873Z,0.60
2023-11-24T09:11:25.630Z,0.80
2023-11-24T09:14:11.027Z,0.50
2023-11-24T09:16:57.620Z,0.80
2023-11-24T09:19:42.795Z,0.90
2023-11-24T09:22:28.293Z,0.90
2023-11-24T09:25:15.802Z,1.15
2023-11-24T09:28:01.610Z,1.20
2023-11-24T09:30:46.826Z,1.33
2023-11-24T09:33:31.929Z,0.70
2023-11-24T09:36:16.968Z,0.75
2023-11-24T09:39:01.991Z,0.40
2023-11-24T09:41:52.322Z,0.50
2023-11-24T09:44:40.255Z,0.87
2023-11-24T09:47:25.221Z,0.50
2023-11-24T09:50:13.600Z,0.70
2023-11-24T09:53:00.020Z,0.65
2023-11-24T09:55:45.243Z,0.50
2023-11-24T09:58:33.932Z,0.70
2023-11-24T10:01:22.751Z,0.40
2023-11-24T10:04:07.820Z,0.50
2023-11-24T10:06:55.229Z,0.70
2023-11-24T10:09:40.125Z,0.57
2023-11-24T10:12:26.359Z,0.70
2023-11-24T10:15:12.557Z,0.70
2023-11-24T10:17:58.270Z,1.10
2023-11-24T10:20:43.040Z,0.50
2023-11-24T10:23:32.318Z,0.30
2023-11-24T10:26:18.261Z,0.30
2023-11-24T10:29:03.504Z,0.43
2023-11-24T10:31:49.418Z,0.40
2023-11-24T10:34:34.675Z,0.70
2023-11-24T10:37:22.064Z,0.30
2023-11-24T10:40:12.387Z,0.30
2023-11-24T10:42:57.715Z,0.50
2023-11-24T10:45:47.101Z,0.57
2023-11-24T10:48:43.345Z,0.90
2023-11-24T10:51:40.889Z,1.00
2023-11-24T10:54:37.989Z,0.30
2023-11-24T10:57:23.868Z,0.80
2023-11-24T11:00:09.829Z,0.80
2023-11-24T11:02:56.172Z,0.63
2023-11-24T11:06:02.001Z,0.88
2023-11-24T11:09:01.198Z,0.70
2023-11-24T11:11:57.688Z,0.50
2023-11-24T11:14:43.298Z,0.30
2023-11-24T11:17:28.300Z,0.63
2023-11-24T11:20:14.124Z,0.43
2023-11-24T11:23:00.798Z,0.27
2023-11-24T11:25:47.949Z,0.20
2023-11-24T11:28:40.681Z,0.55
2023-11-24T11:31:35.405Z,0.80
2023-11-24T11:34:30.434Z,0.40
2023-11-24T11:37:15.652Z,0.57
2023-11-24T11:40:12.604Z,0.40
2023-11-24T11:43:03.330Z,0.50
2023-11-24T11:45:51.133Z,0.43
2023-11-24T11:48:41.004Z,0.40
2023-11-24T11:51:28.278Z,0.30
2023-11-24T11:54:14.814Z,0.35
2023-11-24T11:56:59.976Z,0.40
2023-11-24T11:59:48.025Z,0.40
2023-11-24T12:02:33.645Z,0.22
2023-11-24T12:05:19.816Z,0.37
2023-11-24T12:08:06.472Z,0.90
2023-11-24T12:10:51.281Z,0.50
2023-11-24T12:13:40.042Z,0.40
2023-11-24T12:16:29.537Z,0.50
2023-11-24T12:19:15.057Z,0.50
2023-11-24T12:22:03.445Z,0.50
2023-11-24T12:24:48.825Z,0.50
2023-11-24T12:27:34.878Z,0.55
2023-11-24T12:30:20.449Z,0.50
2023-11-24T12:33:05.543Z,0.40
2023-11-24T12:35:52.151Z,0.20
2023-11-24T12:38:37.755Z,0.50
2023-11-24T12:41:22.951Z,0.55
2023-11-24T12:44:13.011Z,0.85
2023-11-24T12:47:10.289Z,0.83
2023-11-24T12:50:02.560Z,1.27
2023-11-24T12:52:47.385Z,0.63
2023-11-24T12:55:35.414Z,0.88
2023-11-24T12:58:21.255Z,0.90
2023-11-24T13:01:11.515Z,1.00
2023-11-24T13:03:58.267Z,1.17
2023-11-24T13:06:43.460Z,1.10
2023-11-24T13:09:30.600Z,1.00
2023-11-24T13:12:18.733Z,0.82
2023-11-24T13:15:08.202Z,0.73
2023-11-24T13:17:54.541Z,0.50
2023-11-24T13:20:40.349Z,0.85
2023-11-24T13:23:25.463Z,0.60
2023-11-24T13:26:11.284Z,1.00
2023-11-24T13:28:56.468Z,1.10
2023-11-24T13:31:45.671Z,1.00
2023-11-24T13:34:30.705Z,0.95
2023-11-24T13:37:15.784Z,0.85
2023-11-24T13:40:01.996Z,1.60
2023-11-24T13:42:47.719Z,0.87
2023-11-24T13:45:35.400Z,1.02
2023-11-24T13:48:24.762Z,1.70
2023-11-24T13:51:09.900Z,2.90
2023-11-24T13:53:54.979Z,1.02
2023-11-24T13:56:43.190Z,1.10
2023-11-24T13:59:30.185Z,0.95
2023-11-24T14:02:16.340Z,0.60
2023-11-24T14:05:02.235Z,0.77
2023-11-24T14:07:47.482Z,0.68
2023-11-24T14:10:32.943Z,0.80
2023-11-24T14:13:17.858Z,0.70
2023-11-24T14:16:05.327Z,0.85
2023-11-24T14:18:50.396Z,1.02
2023-11-24T14:21:37.392Z,1.10
2023-11-24T14:24:23.636Z,0.50
2023-11-24T14:27:08.568Z,0.20
2023-11-24T14:29:53.452Z,0.60
2023-11-24T14:32:38.576Z,0.80
2023-11-24T14:35:23.557Z,0.82
2023-11-24T14:38:08.649Z,0.60
2023-11-24T14:40:53.776Z,0.63
2023-11-24T14:43:39.142Z,0.50
2023-11-24T14:46:29.824Z,1.08
2023-11-24T14:49:15.098Z,0.65
2023-11-24T14:52:02.301Z,0.40
2023-11-24T14:54:47.676Z,0.70
2023-11-24T14:57:33.147Z,0.60
2023-11-24T15:00:31.738Z,1.10
2023-11-24T15:03:18.338Z,0.60
2023-11-24T15:06:06.492Z,0.50
2023-11-24T15:08:55.092Z,0.73
2023-11-24T15:11:44.516Z,0.38
2023-11-24T15:14:37.673Z,0.65
2023-11-24T15:17:22.864Z,0.55
2023-11-24T15:20:26.988Z,0.50
2023-11-24T15:23:14.204Z,1.40
2023-11-24T15:25:59.715Z,0.30
2023-11-24T15:28:44.982Z,0.50
2023-11-24T15:31:33.176Z,1.08
2023-11-24T15:34:18.962Z,0.87
2023-11-24T15:37:04.781Z,0.75
2023-11-24T15:39:57.567Z,0.40
2023-11-24T15:42:42.744Z,1.27
2023-11-24T15:45:28.975Z,0.80
2023-11-24T15:48:14.312Z,0.67
2023-11-24T15:50:59.316Z,0.50
2023-11-24T15:53:44.626Z,0.93
2023-11-24T15:56:29.747Z,0.60
2023-11-24T15:59:23.671Z,0.50
2023-11-24T16:02:09.250Z,0.40
2023-11-24T16:04:58.080Z,1.27
2023-11-24T16:07:43.120Z,0.68
2023-11-24T16:10:30.868Z,1.65
2023-11-24T16:13:16.056Z,1.30
2023-11-24T16:16:01.349Z,0.80
2023-11-24T16:18:46.450Z,1.27
2023-11-24T16:21:31.950Z,0.60
2023-11-24T16:24:20.500Z,0.40
2023-11-24T16:27:06.661Z,0.60
2023-11-24T16:29:52.000Z,0.40
2023-11-24T16:32:37.238Z,0.70
2023-11-24T16:35:22.910Z,0.73
2023-11-24T16:38:09.399Z,0.55
2023-11-24T16:40:54.578Z,0.30
2023-11-24T16:43:39.498Z,0.47
2023-11-24T16:46:26.210Z,1.30
2023-11-24T16:49:11.942Z,0.40
2023-11-24T16:51:58.077Z,0.47
2023-11-24T16:54:44.141Z,0.55
2023-11-24T16:57:31.930Z,0.57
2023-11-24T17:00:17.586Z,0.35
2023-11-24T17:03:02.763Z,0.45
2023-11-24T17:05:47.832Z,0.60
2023-11-24T17:08:32.710Z,0.80
2023-11-24T17:11:17.684Z,0.80
2023-11-24T17:14:02.947Z,0.85
2023-11-24T17:16:47.890Z,1.08
2023-11-24T17:19:32.971Z,1.20
2023-11-24T17:22:18.018Z,1.40
2023-11-24T17:25:04.148Z,0.60
2023-11-24T17:27:50.166Z,0.52
2023-11-24T17:30:34.972Z,1.05
2023-11-24T17:33:20.189Z,0.75
2023-11-24T17:36:05.481Z,0.80
2023-11-24T17:38:51.038Z,0.80
2023-11-24T17:41:36.146Z,0.60
2023-11-24T17:44:21.428Z,0.80
2023-11-24T17:47:06.550Z,0.90
2023-11-24T17:49:51.492Z,0.80
2023-11-24T17:52:39.465Z,0.60
2023-11-24T17:55:24.888Z,1.40
2023-11-24T17:58:09.923Z,1.30
2023-11-24T18:00:58.542Z,1.05
2023-11-24T18:03:43.769Z,0.70
2023-11-24T18:06:30.437Z,0.50
2023-11-24T18:09:15.486Z,0.38
2023-11-24T18:12:01.101Z,0.60
2023-11-24T18:14:46.146Z,0.82
2023-11-24T18:17:32.820Z,0.50
2023-11-24T18:20:18.705Z,0.50
2023-11-24T18:23:07.398Z,2.05
2023-11-24T18:25:52.410Z,0.77
2023-11-24T18:28:37.392Z,0.50
2023-11-24T18:31:22.486Z,1.00
2023-11-24T18:34:09.580Z,0.90
2023-11-24T18:36:58.454Z,0.75
2023-11-24T18:39:44.413Z,0.73
2023-11-24T18:42:30.379Z,0.68
2023-11-24T18:45:19.659Z,0.40
2023-11-24T18:48:05.596Z,0.57
2023-11-24T18:50:50.491Z,0.70
2023-11-24T18:53:36.647Z,0.63
2023-11-24T18:56:23.351Z,0.63
2023-11-24T18:59:08.426Z,0.65
2023-11-24T19:01:53.583Z,0.90
2023-11-24T19:04:38.876Z,0.57
2023-11-24T19:07:24.251Z,0.43
2023-11-24T19:10:12.846Z,0.80
2023-11-24T19:12:57.801Z,0.50
2023-11-24T19:15:46.505Z,0.50
2023-11-24T19:18:31.983Z,0.40
2023-11-24T19:21:16.933Z,0.63
2023-11-24T19:24:02.978Z,0.70
2023-11-24T19:26:48.293Z,0.70
2023-11-24T19:29:33.323Z,0.40
2023-11-24T19:32:18.334Z,0.55
2023-11-24T19:35:06.058Z,0.40
2023-11-24T19:37:52.499Z,0.63
2023-11-24T19:40:37.691Z,0.40
2023-11-24T19:43:22.758Z,0.50
2023-11-24T19:46:08.942Z,0.50
2023-11-24T19:48:54.103Z,0.93
2023-11-24T19:51:39.377Z,0.50
2023-11-24T19:54:24.313Z,0.57
2023-11-24T19:57:09.917Z,0.60
2023-11-24T19:59:56.530Z,0.95
2023-11-24T20:02:41.770Z,0.60
2023-11-24T20:05:30.445Z,0.70
2023-11-24T20:08:16.801Z,0.30
2023-11-24T20:11:02.102Z,0.27
2023-11-24T20:13:47.179Z,0.80
2023-11-24T20:16:32.210Z,0.63
2023-11-24T20:19:17.909Z,0.93
2023-11-24T20:22:04.100Z,0.82
2023-11-24T20:24:49.224Z,0.70
2023-11-24T20:27:34.330Z,0.90
2023-11-24T20:30:19.784Z,0.80
2023-11-24T20:33:06.261Z,0.70
2023-11-24T20:35:51.652Z,0.45
2023-11-24T20:38:36.917Z,1.40
2023-11-24T20:41:22.676Z,1.25
2023-11-24T20:44:09.080Z,0.43
2023-11-24T20:46:54.957Z,0.88
2023-11-24T20:49:40.708Z,0.28
2023-11-24T20:52:27.566Z,1.03
2023-11-24T20:55:17.456Z,1.42
2023-11-24T20:58:02.961Z,1.83
2023-11-24T21:00:47.896Z,1.20
2023-11-24T21:03:32.991Z,0.85
2023-11-24T21:06:18.413Z,0.73
2023-11-24T21:09:03.994Z,0.60
2023-11-24T21:11:49.398Z,0.52
2023-11-24T21:14:34.735Z,0.40
2023-11-24T21:17:19.729Z,0.50
2023-11-24T21:20:05.364Z,0.73
2023-11-24T21:22:50.841Z,0.40
2023-11-24T21:25:37.315Z,0.38
2023-11-24T21:28:22.447Z,0.90
2023-11-24T21:31:07.475Z,1.73
2023-11-24T21:33:52.781Z,1.17
2023-11-24T21:36:39.189Z,0.90
2023-11-24T21:39:24.207Z,0.60
2023-11-24T21:42:09.210Z,0.80
2023-11-24T21:44:56.800Z,1.52
2023-11-24T21:47:42.124Z,0.80
2023-11-24T21:50:27.444Z,0.45
2023-11-24T21:53:12.480Z,0.85
2023-11-24T21:55:57.547Z,1.88
2023-11-24T21:58:42.735Z,2.10
2023-11-24T22:01:27.660Z,1.47
2023-11-24T22:04:12.747Z,0.93
2023-11-24T22:06:57.650Z,0.75
2023-11-24T22:09:42.406Z,0.50
2023-11-24T22:12:27.286Z,1.00
2023-11-24T22:15:13.039Z,0.30
2023-11-24T22:17:58.866Z,0.60
2023-11-24T22:20:43.752Z,0.95
2023-11-24T22:23:28.993Z,0.50
2023-11-24T22:26:21.087Z,0.82
2023-11-24T22:29:08.078Z,0.40
2023-11-24T22:31:53.152Z,0.47
2023-11-24T22:34:38.609Z,0.60
2023-11-24T22:37:23.916Z,0.70
2023-11-24T22:40:10.412Z,0.93
2023-11-24T22:42:56.392Z,1.10
2023-11-24T22:45:43.537Z,0.43
2023-11-24T22:48:28.504Z,0.43
2023-11-24T22:51:24.408Z,0.60
2023-11-24T22:54:10.037Z,0.57
2023-11-24T22:56:55.330Z,0.60
2023-11-24T22:59:40.484Z,0.80
2023-11-24T23:02:25.615Z,0.32
2023-11-24T23:05:10.825Z,0.68
2023-11-24T23:07:55.809Z,0.65
2023-11-24T23:10:40.957Z,0.60
2023-11-24T23:13:27.280Z,0.93
2023-11-24T23:16:13.091Z,0.70
2023-11-24T23:18:58.226Z,0.90
2023-11-24T23:21:46.809Z,0.65
2023-11-24T23:24:31.967Z,0.73
2023-11-24T23:27:17.108Z,1.35
2023-11-24T23:30:01.991Z,1.48
2023-11-24T23:32:46.915Z,2.25
2023-11-24T23:35:32.591Z,2.88
2023-11-24T23:38:18.138Z,2.10
2023-11-24T23:41:03.348Z,2.33
2023-11-24T23:43:48.906Z,3.03
2023-11-24T23:46:34.279Z,3.88
2023-11-24T23:49:19.170Z,3.90
2023-11-24T23:52:04.366Z,2.50
2023-11-24T23:54:49.583Z,1.85
2023-11-24T23:57:38.064Z,1.13
